Time;durP1;ratioP1;P1;durP2;ratioP2;P2;SDS_P1;SDS_P2;PMS_P1;PMS_P2;Temp;Humidity;BMP_temperature;BMP_pressure;BME280_temperature;BME280_humidity;BME280_pressure;Samples;Min_cycle;Max_cycle;Signal;HPM_P1;HPM_P2
2022/09/04 00:01:17;;;;;;;11.93;7.50;;;;;;;22.57;51.29;95197.34;4949958;28;20022;-60
2022/09/04 00:04:24;;;;;;;12.15;7.22;;;;;;;23.50;51.30;95337.47;4965688;28;20024;-59
2022/09/04 00:07:07;;;;;;;8.43;6.97;;;;;;;23.44;51.24;95350.38;4938061;29;20047;-59
2022/09/04 00:09:40;;;;;;;9.30;6.50;;;;;;;22.70;51.35;95232.97;4937852;29;20065;-60
2022/09/04 00:12:09;;;;;;;10.90;7.15;;;;;;;23.47;51.08;95343.91;4953250;28;20573;-59
2022/09/04 00:14:45;;;;;;;9.97;6.43;;;;;;;23.25;50.93;95326.91;4981250;28;20566;-59
2022/09/04 00:17:28;;;;;;;10.32;7.57;;;;;;;23.09;51.16;95300.47;4958810;28;20297;-59
2022/09/04 00:19:58;;;;;;;10.35;6.65;;;;;;;23.08;51.27;95318.06;4941030;28;20039;-59
2022/09/04 00:22:45;;;;;;;9.35;6.60;;;;;;;23.36;51.01;95343.22;4955349;28;20019;-59
2022/09/04 00:25:39;;;;;;;8.43;6.03;;;;;;;23.21;51.39;95326.41;4978714;28;20474;-59
2022/09/04 00:28:35;;;;;;;8.68;6.30;;;;;;;23.30;50.90;95337.03;4985642;28;20040;-59
2022/09/04 00:31:05;;;;;;;9.20;6.28;;;;;;;23.17;51.57;95342.28;4959527;28;20861;-59
2022/09/04 00:33:46;;;;;;;9.23;6.03;;;;;;;22.88;51.01;95282.94;4981835;28;20038;-59
2022/09/04 00:36:11;;;;;;;9.02;5.43;;;;;;;22.17;51.17;95208.81;4979904;28;20054;-59
2022/09/04 00:38:43;;;;;;;9.82;5.47;;;;;;;23.13;51.21;95336.34;4991948;28;20042;-59
2022/09/04 00:41:41;;;;;;;10.30;5.05;;;;;;;23.29;51.21;95354.66;4976116;28;20521;-59
2022/09/04 00:44:34;;;;;;;7.35;5.32;;;;;;;23.14;51.06;95346.03;5013960;28;20429;-59
2022/09/04 00:47:31;;;;;;;8.65;5.43;;;;;;;22.99;51.38;95345.56;4999424;28;20501;-59
2022/09/04 00:50:00;;;;;;;7.45;5.35;;;;;;;23.14;51.16;95348.75;5001743;28;20046;-59
2022/09/04 00:52:53;;;;;;;7.03;5.28;;;;;;;23.10;51.08;95336.63;5002133;28;20096;-59
2022/09/04 00:55:39;;;;;;;7.35;5.47;;;;;;;23.06;51.65;95342.34;4980019;28;20027;-60
2022/09/04 00:58:26;;;;;;;7.72;5.15;;;;;;;23.14;51.08;95337.84;4998431;28;20036;-58
2022/09/04 01:00:53;;;;;;;9.02;5.20;;;;;;;22.70;50.96;95309.91;4997354;28;20046;-59
2022/09/04 01:03:39;;;;;;;8.27;5.40;;;;;;;22.94;51.14;95324.53;4984461;28;20034;-59
2022/09/04 01:06:17;;;;;;;9.45;4.70;;;;;;;22.96;51.92;95332.94;4978013;28;20033;-59
2022/09/04 01:09:21;;;;;;;7.88;5.00;;;;;;;23.00;51.81;95344.31;4997835;28;20053;-60
2022/09/04 01:11:53;;;;;;;7.88;5.55;;;;;;;22.89;51.64;95344.31;4987545;28;20038;-60
2022/09/04 01:14:54;;;;;;;7.82;5.00;;;;;;;22.45;51.68;95275.56;5002552;28;20038;-60
2022/09/04 01:17:21;;;;;;;6.03;5.15;;;;;;;22.79;51.57;95323.28;4999067;28;20108;-60
2022/09/04 01:20:30;;;;;;;8.63;5.10;;;;;;;22.93;51.80;95357.69;5001442;28;20230;-60
2022/09/04 01:22:58;;;;;;;7.25;5.20;;;;;;;23.04;50.95;95361.13;4941336;29;20543;-60
2022/09/04 01:25:59;;;;;;;9.75;5.20;;;;;;;23.04;50.89;95355.69;4991774;28;20046;-61
2022/09/04 01:28:29;;;;;;;10.57;4.97;;;;;;;21.86;50.63;95177.69;5002058;28;20022;-60
2022/09/04 01:31:16;;;;;;;7.93;5.10;;;;;;;22.85;50.99;95320.56;4968818;28;20539;-62
2022/09/04 01:33:59;;;;;;;8.10;5.15;;;;;;;22.23;50.79;95206.09;4968881;28;20096;-61
2022/09/04 01:36:50;;;;;;;8.15;5.30;;;;;;;22.86;51.41;95332.94;5000416;28;20094;-61
2022/09/04 01:39:17;;;;;;;6.75;5.05;;;;;;;22.84;51.29;95302.72;4985746;28;20043;-60
2022/09/04 01:41:56;;;;;;;7.80;4.90;;;;;;;22.50;51.19;95263.19;4938350;28;20035;-60
2022/09/04 01:44:22;;;;;;;6.13;4.87;;;;;;;22.95;51.10;95336.88;4988863;28;20041;-59
2022/09/04 01:47:02;;;;;;;7.03;5.05;;;;;;;22.89;51.32;95330.69;4988753;28;20080;-59
2022/09/04 01:49:52;;;;;;;7.75;5.35;;;;;;;22.75;51.54;95327.50;4988736;28;20050;-59
2022/09/04 01:52:40;;;;;;;8.35;5.35;;;;;;;22.88;51.31;95331.19;4981967;28;20034;-59
2022/09/04 01:55:38;;;;;;;6.50;4.65;;;;;;;22.82;50.87;95325.00;4984269;28;20057;-59
2022/09/04 01:58:28;;;;;;;9.40;5.15;;;;;;;22.78;51.51;95331.94;4979958;28;20046;-60
2022/09/04 02:01:23;;;;;;;6.78;4.72;;;;;;;22.73;51.20;95324.53;4980353;28;20038;-60
2022/09/04 02:03:59;;;;;;;7.15;4.80;;;;;;;21.86;51.26;95221.19;4977234;28;20050;-60
2022/09/04 02:06:27;;;;;;;8.13;4.90;;;;;;;22.70;51.49;95320.06;4984737;28;20120;-61
2022/09/04 02:08:56;;;;;;;8.75;5.22;;;;;;;22.80;51.59;95324.03;4972709;28;20039;-61
2022/09/04 02:11:22;;;;;;;5.80;5.20;;;;;;;22.74;52.07;95326.03;4982973;28;20523;-60
2022/09/04 02:14:01;;;;;;;7.43;5.45;;;;;;;22.62;51.85;95319.09;4985106;28;20542;-60
2022/09/04 02:16:35;;;;;;;8.90;5.60;;;;;;;22.65;51.59;95318.13;4977959;28;20030;-60
2022/09/04 02:19:42;;;;;;;8.15;4.90;;;;;;;22.13;51.92;95237.47;4989026;28;20096;-60
2022/09/04 02:22:22;;;;;;;7.28;5.22;;;;;;;22.63;51.76;95309.69;4954815;28;20046;-60
2022/09/04 02:25:12;;;;;;;11.40;6.37;;;;;;;22.59;52.09;95333.72;4984873;28;20041;-59
2022/09/04 02:27:56;;;;;;;7.47;5.38;;;;;;;22.69;51.61;95318.59;4985081;28;20289;-59
2022/09/04 02:30:22;;;;;;;8.88;5.13;;;;;;;22.42;51.44;95273.84;4957763;28;20050;-60
2022/09/04 02:33:06;;;;;;;6.40;4.85;;;;;;;22.62;51.68;95308.22;4999245;28;20042;-59
2022/09/04 02:35:56;;;;;;;6.68;5.15;;;;;;;22.65;51.51;95312.66;4993904;28;20078;-60
2022/09/04 02:38:21;;;;;;;;;;;;;;;22.52;51.99;95309.69;4992682;28;20093;-59
2022/09/04 02:40:53;;;;;;;7.13;5.28;;;;;;;22.55;51.78;95316.88;5003863;28;19921;-59
2022/09/04 02:43:43;;;;;;;6.97;5.10;;;;;;;22.67;51.90;95315.63;5002595;28;20053;-59
2022/09/04 02:46:20;;;;;;;9.48;5.47;;;;;;;22.59;51.61;95320.09;4972430;28;20034;-60
2022/09/04 02:49:30;;;;;;;5.93;4.63;;;;;;;22.74;51.28;95315.13;4988975;28;20041;-60
2022/09/04 02:52:14;;;;;;;6.85;5.05;;;;;;;22.63;51.39;95323.28;4982320;28;20050;-59
2022/09/04 02:54:47;;;;;;;7.15;5.07;;;;;;;22.61;51.63;95323.06;4996153;28;21129;-60
2022/09/04 02:57:53;;;;;;;7.93;5.25;;;;;;;22.61;51.69;95333.94;5002695;28;20100;-60
2022/09/04 03:00:42;;;;;;;7.20;5.15;;;;;;;22.36;51.81;95324.06;4994749;28;20042;-60
2022/09/04 03:03:17;;;;;;;8.35;4.53;;;;;;;22.36;51.75;95324.06;4988522;28;20026;-60
2022/09/04 03:05:54;;;;;;;7.85;4.72;;;;;;;22.35;51.60;95325.31;4973595;28;20038;-60
2022/09/04 03:08:49;;;;;;;7.15;5.40;;;;;;;21.61;51.55;95205.81;4971794;28;20077;-60
2022/09/04 03:11:22;;;;;;;7.93;4.63;;;;;;;22.45;51.70;95337.41;4966126;28;20042;-60
2022/09/04 03:14:03;;;;;;;7.55;5.00;;;;;;;22.41;51.61;95337.66;4993555;28;20073;-60
2022/09/04 03:16:33;;;;;;;6.90;5.20;;;;;;;22.37;52.07;95330.25;5002446;28;20050;-60
2022/09/04 03:19:20;;;;;;;5.93;4.93;;;;;;;21.84;51.95;95272.56;4971486;28;20033;-60
2022/09/04 03:22:05;;;;;;;7.38;4.82;;;;;;;21.46;51.85;95218.91;4989539;28;20951;-60
2022/09/04 03:24:48;;;;;;;6.65;4.72;;;;;;;21.89;51.92;95280.72;4996607;28;20510;-60
2022/09/04 03:27:14;;;;;;;7.07;4.80;;;;;;;22.47;51.59;95341.13;4985091;28;20038;-61
2022/09/04 03:29:51;;;;;;;7.40;5.03;;;;;;;21.64;51.51;95221.16;4998986;28;20506;-61
2022/09/04 03:32:34;;;;;;;7.30;4.72;;;;;;;22.00;52.07;95286.94;4985650;28;20478;-59
2022/09/04 03:35:14;;;;;;;8.23;5.03;;;;;;;22.21;52.12;95334.44;4987139;28;20053;-62
2022/09/04 03:38:09;;;;;;;6.15;5.10;;;;;;;22.18;52.16;95340.84;4992949;28;20070;-60
2022/09/04 03:40:36;;;;;;;6.78;4.80;;;;;;;22.21;52.22;95350.78;4974412;28;20691;-58
2022/09/04 03:43:24;;;;;;;7.18;4.88;;;;;;;21.93;51.77;95306.44;4977635;28;20033;-61
2022/09/04 03:46:12;;;;;;;6.55;5.43;;;;;;;22.35;51.90;95349.78;4989077;28;20096;-61
2022/09/04 03:48:52;;;;;;;9.27;5.47;;;;;;;22.31;51.91;95357.44;4994775;28;20042;-61
2022/09/04 03:51:27;;;;;;;6.80;5.10;;;;;;;22.19;52.14;95374.97;5002228;28;20092;-61
2022/09/04 03:54:31;;;;;;;9.00;5.25;;;;;;;22.20;52.49;95373.72;5002739;28;20049;-61
2022/09/04 03:57:09;;;;;;;8.00;5.57;;;;;;;22.23;52.20;95380.22;4999837;28;20042;-61
2022/09/04 03:59:53;;;;;;;9.93;6.18;;;;;;;22.20;52.36;95381.91;5001386;28;20147;-62
2022/09/04 04:02:31;;;;;;;9.70;5.60;;;;;;;22.27;52.04;95386.88;4975195;28;20042;-61
2022/09/04 04:04:59;;;;;;;8.27;5.47;;;;;;;22.21;52.75;95383.41;4987962;28;20499;-61
2022/09/04 04:07:36;;;;;;;7.03;5.55;;;;;;;21.80;51.93;95293.81;4999811;28;20474;-61
2022/09/04 04:10:39;;;;;;;5.80;5.20;;;;;;;21.78;53.09;95339.75;4990013;28;20462;-60
2022/09/04 04:13:33;;;;;;;7.38;5.72;;;;;;;22.21;53.04;95416.06;4976710;28;20042;-60
2022/09/04 04:16:08;;;;;;;6.50;5.40;;;;;;;21.64;53.30;95343.44;4994649;28;20046;-61
2022/09/04 04:18:51;;;;;;;9.10;6.15;;;;;;;22.05;53.57;95419.44;4985059;28;20038;-60
2022/09/04 04:22:14;;;;;;;6.95;6.20;;;;;;;22.09;53.58;95414.53;4971520;28;20525;-60
2022/09/04 04:24:53;;;;;;;9.32;5.72;;;;;;;22.24;53.24;95425.97;4899234;29;20137;-60
2022/09/04 04:27:31;;;;;;;8.52;5.88;;;;;;;22.36;52.89;95427.47;4897776;29;20372;-61
2022/09/04 04:30:05;;;;;;;7.07;5.22;;;;;;;22.25;53.01;95432.88;4971036;28;20038;-60
2022/09/04 04:32:59;;;;;;;7.07;6.18;;;;;;;22.22;52.81;95428.41;5001580;28;20038;-60
2022/09/04 04:35:56;;;;;;;7.22;5.35;;;;;;;21.47;52.59;95305.34;5001818;28;20054;-61
2022/09/04 04:38:46;;;;;;;6.93;5.47;;;;;;;21.69;53.06;95338.03;4997879;28;20037;-60
2022/09/04 04:41:20;;;;;;;7.57;5.20;;;;;;;22.38;52.82;95432.41;4973080;28;20424;-61
2022/09/04 04:43:54;;;;;;;8.20;5.35;;;;;;;22.26;53.22;95428.91;5000367;28;20038;-61
2022/09/04 04:46:37;;;;;;;7.38;5.65;;;;;;;22.20;53.66;95430.84;5000283;28;20033;-60
2022/09/04 04:49:36;;;;;;;8.07;5.55;;;;;;;21.95;54.93;95415.44;4973732;28;20041;-60
2022/09/04 04:52:22;;;;;;;7.38;5.75;;;;;;;21.80;54.82;95381.53;4984409;28;20041;-60
2022/09/04 04:55:05;;;;;;;8.82;5.53;;;;;;;22.44;54.62;95433.91;4980067;28;20783;-60
2022/09/04 04:58:02;;;;;;;8.43;5.70;;;;;;;22.43;53.64;95426.97;4997251;28;20042;-60
2022/09/04 05:00:35;;;;;;;7.07;5.53;;;;;;;22.68;53.28;95447.78;4981327;28;20046;-61
2022/09/04 05:03:17;;;;;;;8.85;5.68;;;;;;;22.77;53.17;95453.00;4997695;28;20546;-61
2022/09/04 05:05:52;;;;;;;7.00;5.68;;;;;;;22.83;52.90;95440.13;5001345;28;20054;-61
2022/09/04 05:08:21;;;;;;;6.97;5.38;;;;;;;22.96;52.86;95430.25;4977303;28;20041;-61
2022/09/04 05:10:50;;;;;;;6.93;5.85;;;;;;;22.93;52.74;95437.44;5005383;28;20073;-62
2022/09/04 05:13:25;;;;;;;8.50;6.03;;;;;;;22.88;52.16;95397.31;4975096;28;20053;-61
2022/09/04 05:16:18;;;;;;;7.78;6.40;;;;;;;23.00;52.34;95412.41;4967089;28;20065;-61
2022/09/04 05:18:52;;;;;;;7.75;5.80;;;;;;;23.29;52.19;95433.69;4987201;28;20601;-60
2022/09/04 05:21:48;;;;;;;7.03;5.88;;;;;;;23.42;51.65;95426.47;4975885;28;20038;-60
2022/09/04 05:24:21;;;;;;;7.97;6.35;;;;;;;23.37;51.48;95419.03;4984072;28;20050;-60
2022/09/04 05:27:24;;;;;;;6.82;6.00;;;;;;;23.56;51.63;95438.31;4972216;28;20041;-63
2022/09/04 05:30:24;;;;;;;6.90;6.10;;;;;;;23.21;51.41;95391.06;4974220;28;20088;-61
2022/09/04 05:32:55;;;;;;;;;;;;;;;23.60;51.41;95438.78;4945982;28;20038;-61
2022/09/04 05:35:36;;;;;;;10.10;6.85;;;;;;;23.68;51.66;95434.34;4985375;28;20016;-61
2022/09/04 05:38:20;;;;;;;10.63;7.20;;;;;;;23.65;51.19;95435.34;5003410;28;20103;-61
2022/09/04 05:41:05;;;;;;;10.65;6.70;;;;;;;23.81;50.63;95442.72;4989643;28;20500;-61
2022/09/04 05:43:36;;;;;;;10.32;6.72;;;;;;;23.74;50.64;95454.16;5005026;28;20045;-61
2022/09/04 05:46:33;;;;;;;9.50;6.47;;;;;;;23.72;51.15;95446.50;5002761;28;20026;-61
2022/09/04 05:49:27;;;;;;;9.80;7.20;;;;;;;23.90;50.50;95443.94;5001664;28;20057;-61
2022/09/04 05:52:29;;;;;;;9.43;7.25;;;;;;;23.44;50.34;95368.72;4968820;28;20046;-60
2022/09/04 05:55:21;;;;;;;8.63;6.40;;;;;;;23.48;50.77;95410.84;5004627;28;20073;-67
2022/09/04 05:58:21;;;;;;;9.30;6.80;;;;;;;23.92;50.41;95441.44;4999123;28;20050;-65
2022/09/04 06:01:08;;;;;;;8.15;6.15;;;;;;;23.77;50.54;95442.25;4986683;28;20046;-63
2022/09/04 06:03:33;;;;;;;7.32;5.78;;;;;;;23.93;50.84;95434.75;4997262;28;20038;-62
2022/09/04 06:06:03;;;;;;;7.90;5.82;;;;;;;24.27;49.98;95418.94;5003487;28;20049;-62
2022/09/04 06:08:38;;;;;;;;;;;;;;;24.34;50.25;95408.25;4999334;28;20149;-64
2022/09/04 06:11:35;;;;;;;7.55;5.55;;;;;;;24.59;49.61;95418.03;4987227;28;19921;-63
2022/09/04 06:14:14;;;;;;;7.00;5.70;;;;;;;24.47;49.65;95416.63;4999885;28;20053;-64
2022/09/04 06:16:43;;;;;;;6.70;5.72;;;;;;;24.70;49.61;95407.75;4979836;28;20042;-63
2022/09/04 06:19:54;;;;;;;8.40;5.93;;;;;;;24.78;49.32;95421.59;5004531;28;20038;-62
2022/09/04 06:22:38;;;;;;;7.82;5.68;;;;;;;24.70;49.67;95423.41;4963049;28;20103;-62
2022/09/04 06:25:45;;;;;;;7.18;5.93;;;;;;;24.77;49.90;95428.28;5002765;28;20150;-68
2022/09/04 06:28:25;;;;;;;7.05;6.00;;;;;;;24.87;49.60;95425.50;4962957;28;20137;-65
2022/09/04 06:31:09;;;;;;;7.65;6.10;;;;;;;24.85;49.24;95419.06;5004646;28;20421;-65
2022/09/04 06:34:11;;;;;;;7.88;5.70;;;;;;;24.25;49.83;95328.66;4996451;28;20061;-65
2022/09/04 06:37:10;;;;;;;7.63;6.25;;;;;;;24.82;49.52;95409.88;4995046;28;20052;-64
2022/09/04 06:39:44;;;;;;;6.38;5.45;;;;;;;24.76;49.98;95421.38;4987777;28;20042;-63
2022/09/04 06:42:46;;;;;;;7.03;5.70;;;;;;;24.79;49.63;95420.34;4993318;28;20046;-64
2022/09/04 06:45:27;;;;;;;7.13;5.45;;;;;;;24.08;49.90;95326.03;4995287;28;20050;-66
2022/09/04 06:48:03;;;;;;;6.68;6.00;;;;;;;24.18;49.95;95329.19;4992568;28;20177;-63
2022/09/04 06:50:51;;;;;;;6.30;5.50;;;;;;;24.68;50.32;95414.97;5003005;28;20057;-64
2022/09/04 06:53:28;;;;;;;6.30;5.68;;;;;;;24.66;50.15;95417.47;4996100;28;20041;-62
2022/09/04 06:56:09;;;;;;;6.05;5.35;;;;;;;24.65;50.57;95415.97;4991281;28;20049;-62
2022/09/04 06:59:00;;;;;;;6.85;6.13;;;;;;;24.04;49.99;95320.09;5004264;28;20097;-63
2022/09/04 07:02:00;;;;;;;7.43;6.15;;;;;;;24.71;50.61;95411.22;5004394;28;20038;-61
2022/09/04 07:05:00;;;;;;;7.53;6.35;;;;;;;24.75;50.15;95408.94;4966869;28;20058;-68
2022/09/04 07:07:45;;;;;;;9.77;6.43;;;;;;;24.68;50.64;95404.03;5007602;28;20034;-62
2022/09/04 07:10:19;;;;;;;7.93;5.93;;;;;;;23.95;51.06;95312.22;4988232;28;20587;-65
2022/09/04 07:12:53;;;;;;;8.15;6.05;;;;;;;24.58;50.86;95405.63;4983854;28;20733;-68
2022/09/04 07:15:28;;;;;;;9.65;6.57;;;;;;;24.65;50.49;95407.78;5004937;28;20038;-67
2022/09/04 07:18:17;;;;;;;8.43;6.13;;;;;;;24.18;50.83;95340.84;5004362;28;20573;-65
2022/09/04 07:21:05;;;;;;;7.90;6.53;;;;;;;24.67;50.67;95418.97;4986732;28;20038;-63
2022/09/04 07:23:52;;;;;;;8.75;6.15;;;;;;;23.85;50.67;95285.75;4991734;28;20061;-67
2022/09/04 07:26:49;;;;;;;7.55;6.20;;;;;;;24.32;50.89;95358.88;4990935;28;20029;-66
2022/09/04 07:29:21;;;;;;;7.95;6.68;;;;;;;24.29;51.10;95368.06;4968547;28;20054;-62
2022/09/04 07:31:59;;;;;;;8.70;6.60;;;;;;;24.67;50.92;95408.75;4987071;28;20046;-67
2022/09/04 07:34:30;;;;;;;8.80;7.35;;;;;;;24.50;50.84;95393.75;5004027;28;20119;-66
2022/09/04 07:37:00;;;;;;;8.70;6.90;;;;;;;24.74;50.73;95413.69;4987509;28;20033;-66
2022/09/04 07:39:53;;;;;;;9.02;7.00;;;;;;;24.76;50.84;95415.91;5004419;28;20038;-68
2022/09/04 07:42:29;;;;;;;6.97;6.28;;;;;;;24.13;51.00;95338.88;4986790;28;20042;-68
2022/09/04 07:45:05;;;;;;;8.48;6.82;;;;;;;24.14;50.97;95345.84;4977775;28;20046;-66
2022/09/04 07:47:43;;;;;;;8.48;7.40;;;;;;;24.75;50.92;95436.28;4972971;28;20039;-67
2022/09/04 07:50:16;;;;;;;8.50;6.45;;;;;;;24.34;50.82;95370.03;4985116;28;20140;-68
2022/09/04 07:53:19;;;;;;;8.77;6.53;;;;;;;24.75;51.20;95442.47;4987746;28;20513;-64
2022/09/04 07:55:49;;;;;;;9.30;7.22;;;;;;;24.58;51.46;95411.06;5002622;28;20120;-65
2022/09/04 07:58:37;;;;;;;9.20;6.50;;;;;;;24.79;51.08;95442.22;5001913;28;20488;-66
2022/09/04 08:01:40;;;;;;;9.05;6.95;;;;;;;24.79;51.18;95436.75;4990642;28;20062;-66
2022/09/04 08:04:42;;;;;;;8.18;6.38;;;;;;;24.80;50.82;95438.97;4999056;28;20045;-70
2022/09/04 08:07:24;;;;;;;8.02;5.88;;;;;;;24.49;50.78;95395.00;5003345;28;20029;-68
2022/09/04 08:10:21;;;;;;;7.13;5.95;;;;;;;24.83;51.25;95452.34;4993774;28;20065;-62
2022/09/04 08:12:49;;;;;;;7.85;6.32;;;;;;;24.88;50.85;95457.03;5003921;28;20076;-68
2022/09/04 08:15:29;;;;;;;8.23;6.40;;;;;;;24.88;50.74;95451.56;4986162;28;20061;-64
2022/09/04 08:18:15;;;;;;;7.72;6.60;;;;;;;24.84;50.75;95451.09;5010354;28;20045;-65
2022/09/04 08:20:44;;;;;;;9.05;6.32;;;;;;;24.87;51.03;95454.78;4997558;28;20046;-66
2022/09/04 08:23:46;;;;;;;7.07;6.25;;;;;;;24.91;50.73;95449.81;4975610;28;20046;-65
2022/09/04 08:26:15;;;;;;;7.40;6.22;;;;;;;24.92;50.78;95457.50;5003147;28;20514;-67
2022/09/04 08:29:03;;;;;;;8.48;6.40;;;;;;;24.88;50.47;95451.56;4999410;28;20049;-69
2022/09/04 08:31:30;;;;;;;9.65;6.50;;;;;;;24.83;50.60;95438.69;4968638;28;20049;-67
2022/09/04 08:34:06;;;;;;;7.63;6.82;;;;;;;24.92;50.71;95454.03;4991301;28;20034;-67
2022/09/04 08:36:37;;;;;;;9.15;6.43;;;;;;;24.90;50.85;95449.06;4974436;28;20108;-67
2022/09/04 08:39:28;;;;;;;8.50;6.07;;;;;;;24.94;50.52;95444.06;5005334;28;20518;-65
2022/09/04 08:42:30;;;;;;;7.45;5.97;;;;;;;24.95;50.60;95442.09;4992856;28;20071;-68
2022/09/04 08:45:16;;;;;;;8.23;6.55;;;;;;;24.92;50.78;95441.09;4989368;28;20053;-68
2022/09/04 08:48:09;;;;;;;7.05;6.13;;;;;;;24.95;50.53;95440.09;4980055;28;20034;-67
2022/09/04 08:50:57;;;;;;;7.88;6.65;;;;;;;24.60;50.53;95386.72;4975750;28;20447;-66
2022/09/04 08:53:36;;;;;;;7.68;6.30;;;;;;;24.95;50.72;95440.09;4976621;28;20069;-63
2022/09/04 08:56:10;;;;;;;9.52;6.60;;;;;;;25.01;50.71;95438.06;4977316;28;20109;-68
2022/09/04 08:58:50;;;;;;;8.93;6.65;;;;;;;25.00;50.30;95431.13;4992774;28;20045;-63
2022/09/04 09:01:34;;;;;;;7.50;5.90;;;;;;;25.06;50.05;95426.34;5003378;28;20058;-66
2022/09/04 09:04:07;;;;;;;7.25;5.72;;;;;;;24.91;50.06;95404.09;4991489;28;20030;-68
2022/09/04 09:06:48;;;;;;;7.45;5.60;;;;;;;25.09;50.04;95427.31;4983666;28;20039;-65
2022/09/04 09:09:31;;;;;;;7.45;5.10;;;;;;;25.09;49.98;95417.13;4989320;28;20042;-67
2022/09/04 09:12:22;;;;;;;7.45;5.40;;;;;;;25.03;49.69;95407.50;4983370;28;20485;-67
2022/09/04 09:14:57;;;;;;;6.65;5.15;;;;;;;25.16;49.78;95421.31;5000959;28;20045;-66
2022/09/04 09:17:28;;;;;;;5.20;4.70;;;;;;;25.19;49.90;95421.03;5003203;28;20033;-67
2022/09/04 09:20:27;;;;;;;6.25;5.60;;;;;;;25.22;49.88;95430.19;4982214;28;20042;-66
2022/09/04 09:23:34;;;;;;;8.30;5.68;;;;;;;25.23;49.65;95421.50;4997297;28;20049;-65
2022/09/04 09:26:44;;;;;;;6.05;4.68;;;;;;;25.23;49.91;95416.03;4999317;28;20509;-71
2022/09/04 09:29:32;;;;;;;6.40;5.20;;;;;;;25.27;49.98;95410.25;4992796;28;20042;-67
2022/09/04 09:32:22;;;;;;;5.53;4.85;;;;;;;25.28;49.73;95412.47;5003317;28;20180;-67
2022/09/04 09:35:10;;;;;;;5.13;4.38;;;;;;;25.31;49.94;95406.00;5002034;28;20107;-66
2022/09/04 09:37:44;;;;;;;6.25;4.88;;;;;;;25.34;49.21;95410.44;4986325;28;20053;-67
2022/09/04 09:40:25;;;;;;;8.23;5.20;;;;;;;25.35;49.40;95411.91;5005456;28;20033;-68
2022/09/04 09:42:53;;;;;;;6.47;4.55;;;;;;;25.39;49.49;95401.44;4998181;28;20548;-67
2022/09/04 09:45:43;;;;;;;5.85;4.60;;;;;;;25.39;49.71;95413.09;5002511;28;20057;-67
2022/09/04 09:48:11;;;;;;;;;;;;;;;25.45;49.39;95402.09;5013438;28;20049;-66
2022/09/04 09:51:01;;;;;;;5.90;4.78;;;;;;;25.45;49.19;95402.09;5003569;28;19924;-64
2022/09/04 09:53:38;;;;;;;6.43;4.60;;;;;;;25.47;49.57;95399.59;4997209;28;20319;-67
2022/09/04 09:56:28;;;;;;;5.32;4.45;;;;;;;25.48;49.63;95387.41;5005138;28;20034;-68
2022/09/04 09:59:08;;;;;;;6.57;5.10;;;;;;;25.22;49.53;95348.94;5006253;28;20038;-68
2022/09/04 10:01:49;;;;;;;5.55;4.53;;;;;;;25.50;49.55;95373.97;4982667;28;20141;-62
2022/09/04 10:04:39;;;;;;;5.55;4.82;;;;;;;25.51;49.74;95375.44;4993237;28;20525;-63
2022/09/04 10:07:13;;;;;;;;;;;;;;;25.48;49.94;95390.16;5006885;28;20656;-64
2022/09/04 10:10:08;;;;;;;7.55;4.97;;;;;;;25.46;49.35;95382.47;5005888;28;19984;-68
2022/09/04 10:12:51;;;;;;;5.40;4.57;;;;;;;24.78;49.47;95276.81;4989660;28;20042;-68
2022/09/04 10:15:38;;;;;;;4.95;4.45;;;;;;;25.52;49.75;95382.41;4989957;28;20034;-64
2022/09/04 10:18:25;;;;;;;7.47;4.53;;;;;;;25.52;49.59;95377.66;5001343;28;20046;-64
2022/09/04 10:21:19;;;;;;;5.78;4.88;;;;;;;25.19;49.71;95314.41;5005247;28;20042;-66
2022/09/04 10:23:54;;;;;;;4.93;4.43;;;;;;;25.55;49.55;95364.97;5005457;28;20034;-68
2022/09/04 10:26:44;;;;;;;5.10;4.50;;;;;;;25.57;49.53;95359.72;5005166;28;20046;-67
2022/09/04 10:29:32;;;;;;;4.95;4.00;;;;;;;25.60;49.50;95361.41;5005122;28;20045;-67
2022/09/04 10:32:30;;;;;;;5.03;4.47;;;;;;;25.63;49.48;95360.38;4981311;28;20034;-67
2022/09/04 10:35:18;;;;;;;6.18;4.75;;;;;;;25.63;49.35;95365.84;4995691;28;20050;-63
2022/09/04 10:37:47;;;;;;;5.13;4.63;;;;;;;25.65;49.44;95374.31;5005301;28;20052;-65
2022/09/04 10:40:47;;;;;;;5.15;4.53;;;;;;;25.68;49.41;95365.84;5012680;28;20096;-67
2022/09/04 10:44:06;;;;;;;5.63;4.40;;;;;;;25.70;49.47;95365.31;4985055;28;20030;-64
2022/09/04 10:46:44;;;;;;;5.00;4.18;;;;;;;25.41;49.11;95327.81;4944642;29;20057;-67
2022/09/04 10:49:14;;;;;;;5.22;4.40;;;;;;;25.73;49.27;95358.81;4980558;28;20034;-64
2022/09/04 10:52:05;;;;;;;5.85;4.55;;;;;;;25.74;49.34;95339.16;4977990;28;20023;-65
2022/09/04 10:54:57;;;;;;;5.15;4.57;;;;;;;25.77;49.14;95342.81;4994028;28;20092;-68
2022/09/04 10:57:53;;;;;;;4.80;4.20;;;;;;;25.76;49.16;95335.91;5004250;28;20038;-65
2022/09/04 11:00:19;;;;;;;5.25;4.65;;;;;;;25.60;49.27;95312.19;4999299;28;20415;-68
2022/09/04 11:02:55;;;;;;;5.00;4.35;;;;;;;25.79;49.28;95339.06;4973667;28;20800;-66
2022/09/04 11:05:49;;;;;;;5.53;4.43;;;;;;;25.72;49.44;95321.75;5004700;28;20041;-69
2022/09/04 11:08:25;;;;;;;5.93;4.18;;;;;;;25.45;48.94;95268.13;4983751;28;20042;-68
2022/09/04 11:10:56;;;;;;;4.95;4.43;;;;;;;25.84;48.96;95321.84;4997992;28;20096;-69
2022/09/04 11:13:22;;;;;;;4.95;4.25;;;;;;;25.85;49.09;95323.31;5005288;28;20045;-67
2022/09/04 11:16:08;;;;;;;5.20;4.40;;;;;;;25.85;49.14;95331.50;5004956;28;20095;-66
2022/09/04 11:18:52;;;;;;;6.05;4.82;;;;;;;25.85;49.09;95326.03;4991446;28;20049;-66
2022/09/04 11:21:36;;;;;;;5.47;4.45;;;;;;;25.88;48.86;95318.81;5003346;28;20475;-65
2022/09/04 11:24:04;;;;;;;5.47;4.70;;;;;;;25.88;48.88;95322.28;5005088;28;20069;-66
2022/09/04 11:26:59;;;;;;;6.10;4.78;;;;;;;25.31;48.96;95225.56;5004107;28;20045;-64
2022/09/04 11:29:46;;;;;;;6.75;4.47;;;;;;;25.94;48.85;95311.25;4948898;28;20137;-66
2022/09/04 11:32:30;;;;;;;5.05;4.55;;;;;;;25.94;48.55;95319.47;5004447;28;20030;-66
2022/09/04 11:35:38;;;;;;;5.13;4.20;;;;;;;25.96;48.90;95323.19;4999344;28;20065;-65
2022/09/04 11:38:07;;;;;;;5.03;4.28;;;;;;;26.00;48.81;95315.38;4955774;28;20129;-69
2022/09/04 11:41:00;;;;;;;5.15;4.10;;;;;;;25.99;48.65;95313.16;4990386;28;20778;-69
2022/09/04 11:43:35;;;;;;;5.38;4.20;;;;;;;25.91;48.29;95293.88;5004441;28;20584;-63
2022/09/04 11:46:01;;;;;;;5.25;4.15;;;;;;;26.02;48.62;95304.69;4987886;28;20022;-62
2022/09/04 11:48:52;;;;;;;4.90;4.00;;;;;;;26.03;48.71;95308.16;5004581;28;20080;-65
2022/09/04 11:51:38;;;;;;;5.60;4.68;;;;;;;26.02;48.62;95310.16;4991637;28;20062;-69
2022/09/04 11:54:33;;;;;;;5.15;4.32;;;;;;;26.03;48.81;95308.88;5004006;28;20129;-66
2022/09/04 11:57:20;;;;;;;5.32;4.15;;;;;;;26.03;48.50;95300.66;4988551;28;20068;-69
2022/09/04 12:00:06;;;;;;;5.25;4.50;;;;;;;26.04;48.25;95296.69;4990065;28;20123;-68
2022/09/04 12:02:55;;;;;;;4.78;3.97;;;;;;;26.09;48.41;95292.38;4993117;28;20489;-67
2022/09/04 12:05:48;;;;;;;5.17;4.20;;;;;;;26.09;48.50;95281.44;5009631;28;20541;-67
2022/09/04 12:08:47;;;;;;;5.43;4.47;;;;;;;26.10;48.24;95283.66;4994161;28;20043;-66
2022/09/04 12:11:36;;;;;;;6.37;4.37;;;;;;;26.07;48.19;95272.97;4986135;28;20040;-66
2022/09/04 12:14:36;;;;;;;5.55;4.15;;;;;;;26.17;48.14;95272.06;4989167;28;20042;-65
2022/09/04 12:17:01;;;;;;;5.93;4.28;;;;;;;26.18;48.10;95278.31;5003961;28;20050;-66
2022/09/04 12:19:41;;;;;;;4.82;4.15;;;;;;;26.18;48.22;95268.09;5003161;28;21379;-66
2022/09/04 12:22:10;;;;;;;4.97;4.35;;;;;;;26.16;48.38;95270.63;4970708;28;20425;-68
2022/09/04 12:25:15;;;;;;;4.85;4.28;;;;;;;24.56;48.12;95081.19;5003241;28;20449;-69
2022/09/04 12:27:52;;;;;;;5.47;4.38;;;;;;;26.08;48.38;95258.78;5005409;28;20056;-64
2022/09/04 12:30:19;;;;;;;5.35;4.35;;;;;;;25.67;47.84;95204.94;4965252;28;20053;-66
2022/09/04 12:33:22;;;;;;;5.53;4.47;;;;;;;26.09;48.23;95273.94;4974188;28;20116;-69
2022/09/04 12:36:00;;;;;;;6.38;4.60;;;;;;;26.06;48.56;95277.72;4999510;28;20056;-67
2022/09/04 12:38:47;;;;;;;5.38;4.35;;;;;;;26.08;48.43;95272.47;4996623;28;20574;-66
2022/09/04 12:41:18;;;;;;;5.35;4.63;;;;;;;26.06;48.31;95277.72;4996654;28;20049;-66
2022/09/04 12:43:50;;;;;;;4.90;4.07;;;;;;;26.04;48.55;95285.72;5008704;28;20054;-67
2022/09/04 12:46:32;;;;;;;5.75;4.43;;;;;;;26.02;48.33;95282.03;4996236;28;20038;-65
2022/09/04 12:49:03;;;;;;;5.18;4.57;;;;;;;26.06;48.47;95277.72;4978352;28;20057;-65
2022/09/04 12:51:35;;;;;;;5.78;4.30;;;;;;;25.77;48.57;95236.13;4983897;28;20046;-63